createdAt,value
2022-12-11T00:01:58.379Z,24.30
2022-12-11T00:04:25.026Z,27.83
2022-12-11T00:06:52.608Z,24.67
2022-12-11T00:09:20.519Z,23.33
2022-12-11T00:11:47.567Z,21.92
2022-12-11T00:14:15.487Z,25.77
2022-12-11T00:16:42.239Z,20.88
2022-12-11T00:19:09.009Z,24.45
2022-12-11T00:21:36.175Z,26.88
2022-12-11T00:24:02.836Z,25.40
2022-12-11T00:26:29.512Z,24.23
2022-12-11T00:28:57.157Z,25.05
2022-12-11T00:31:24.780Z,22.90
2022-12-11T00:33:51.706Z,22.33
2022-12-11T00:36:21.255Z,30.77
2022-12-11T00:38:49.212Z,20.27
2022-12-11T00:41:18.894Z,27.55
2022-12-11T00:43:46.269Z,24.17
2022-12-11T00:46:13.449Z,27.75
2022-12-11T00:48:40.211Z,23.17
2022-12-11T00:51:07.497Z,25.73
2022-12-11T00:53:34.166Z,56.78
2022-12-11T00:56:00.884Z,31.27
2022-12-11T00:58:27.765Z,23.85
2022-12-11T01:00:54.622Z,22.13
2022-12-11T01:03:21.360Z,18.33
2022-12-11T01:05:52.997Z,24.70
2022-12-11T01:08:19.741Z,26.38
2022-12-11T01:10:46.477Z,40.75
2022-12-11T01:13:13.274Z,19.90
2022-12-11T01:15:45.299Z,25.13
2022-12-11T01:18:14.079Z,19.85
2022-12-11T01:20:42.723Z,30.17
2022-12-11T01:23:13.163Z,29.20
2022-12-11T01:25:39.880Z,23.70
2022-12-11T01:28:07.656Z,19.13
2022-12-11T01:30:35.784Z,20.25
2022-12-11T01:33:02.969Z,22.80
2022-12-11T01:35:29.588Z,25.92
2022-12-11T01:37:56.315Z,25.50
2022-12-11T01:40:23.597Z,26.85
2022-12-11T01:42:50.585Z,26.83
2022-12-11T01:45:38.958Z,24.60
2022-12-11T01:48:09.803Z,20.85
2022-12-11T01:50:42.227Z,25.25
2022-12-11T01:53:12.254Z,23.95
2022-12-11T01:55:39.963Z,21.58
2022-12-11T01:58:06.976Z,20.42
2022-12-11T02:00:33.635Z,23.35
2022-12-11T02:03:00.279Z,19.55
2022-12-11T02:05:26.929Z,19.80
2022-12-11T02:07:58.453Z,20.15
2022-12-11T02:10:44.447Z,19.02
2022-12-11T02:13:39.763Z,21.40
2022-12-11T02:16:16.726Z,19.27
2022-12-11T02:18:53.518Z,18.77
2022-12-11T02:21:23.028Z,17.15
2022-12-11T02:24:18.916Z,18.05
2022-12-11T02:27:16.329Z,18.63
2022-12-11T02:30:09.341Z,17.92
2022-12-11T02:32:55.631Z,17.73
2022-12-11T02:35:35.546Z,17.25
2022-12-11T02:38:08.051Z,42.75
2022-12-11T02:40:38.418Z,23.42
2022-12-11T02:43:09.907Z,22.23
2022-12-11T02:45:39.707Z,21.17
2022-12-11T02:48:09.943Z,19.02
2022-12-11T02:50:42.393Z,20.67
2022-12-11T02:53:12.383Z,20.73
2022-12-11T02:55:41.447Z,19.27
2022-12-11T02:58:26.897Z,17.75
2022-12-11T03:00:53.595Z,19.60
2022-12-11T03:03:20.914Z,23.15
2022-12-11T03:05:47.835Z,20.00
2022-12-11T03:08:17.497Z,21.60
2022-12-11T03:10:45.547Z,19.65
2022-12-11T03:13:16.346Z,20.42
2022-12-11T03:16:03.972Z,17.67
2022-12-11T03:18:50.007Z,22.40
2022-12-11T03:21:24.747Z,22.20
2022-12-11T03:24:05.222Z,24.98
2022-12-11T03:26:38.315Z,20.55
2022-12-11T03:29:15.773Z,22.85
2022-12-11T03:31:46.334Z,24.17
2022-12-11T03:34:24.711Z,22.20
2022-12-11T03:36:53.704Z,22.20
2022-12-11T03:39:32.519Z,21.50
2022-12-11T03:42:05.894Z,21.45
2022-12-11T03:44:34.990Z,21.15
2022-12-11T03:47:05.807Z,20.05
2022-12-11T03:49:37.143Z,30.25
2022-12-11T03:52:05.730Z,26.70
2022-12-11T03:54:34.423Z,26.33
2022-12-11T03:57:04.367Z,28.55
2022-12-11T03:59:31.006Z,23.38
2022-12-11T04:01:57.909Z,24.45
2022-12-11T04:04:24.668Z,23.60
2022-12-11T04:06:51.415Z,23.15
2022-12-11T04:09:18.089Z,23.23
2022-12-11T04:11:44.765Z,21.30
2022-12-11T04:14:32.751Z,19.08
2022-12-11T04:17:00.608Z,19.08
2022-12-11T04:19:45.881Z,20.27
2022-12-11T04:22:33.024Z,18.48
2022-12-11T04:25:00.406Z,19.35
2022-12-11T04:27:45.852Z,18.55
2022-12-11T04:30:19.125Z,18.92
2022-12-11T04:32:45.714Z,18.20
2022-12-11T04:35:13.073Z,22.05
2022-12-11T04:37:39.933Z,21.65
2022-12-11T04:40:10.659Z,19.50
2022-12-11T04:42:37.465Z,17.02
2022-12-11T04:45:05.814Z,18.08
2022-12-11T04:47:32.428Z,18.88
2022-12-11T04:49:59.084Z,17.30
2022-12-11T04:52:25.686Z,17.85
2022-12-11T04:54:52.374Z,17.40
2022-12-11T04:57:20.740Z,18.13
2022-12-11T04:59:47.956Z,18.15
2022-12-11T05:02:15.757Z,20.05
2022-12-11T05:04:42.733Z,16.10
2022-12-11T05:07:09.613Z,16.80
2022-12-11T05:09:36.595Z,19.42
2022-12-11T05:12:03.703Z,16.77
2022-12-11T05:14:32.015Z,17.73
2022-12-11T05:16:59.670Z,17.85
2022-12-11T05:19:26.978Z,16.10
2022-12-11T05:21:53.859Z,17.92
2022-12-11T05:24:20.603Z,18.67
2022-12-11T05:26:47.188Z,18.20
2022-12-11T05:29:13.826Z,17.50
2022-12-11T05:31:40.540Z,17.35
2022-12-11T05:34:07.186Z,19.63
2022-12-11T05:36:34.392Z,18.48
2022-12-11T05:39:02.065Z,17.40
2022-12-11T05:41:31.016Z,18.27
2022-12-11T05:43:57.626Z,18.13
2022-12-11T05:46:27.161Z,17.00
2022-12-11T05:49:00.301Z,25.67
2022-12-11T05:51:28.229Z,19.92
2022-12-11T05:53:56.573Z,22.13
2022-12-11T05:56:26.831Z,29.15
2022-12-11T05:58:54.501Z,21.60
2022-12-11T06:01:28.515Z,21.35
2022-12-11T06:03:56.318Z,18.15
2022-12-11T06:06:23.972Z,23.55
2022-12-11T06:08:51.929Z,24.67
2022-12-11T06:11:23.800Z,23.83
2022-12-11T06:13:52.039Z,24.15
2022-12-11T06:16:18.848Z,20.52
2022-12-11T06:18:45.859Z,22.67
2022-12-11T06:21:19.849Z,23.08
2022-12-11T06:23:48.136Z,22.15
2022-12-11T06:26:15.883Z,20.70
2022-12-11T06:28:42.651Z,19.30
2022-12-11T06:31:10.024Z,17.73
2022-12-11T06:33:36.823Z,19.33
2022-12-11T06:36:05.628Z,19.75
2022-12-11T06:38:32.566Z,20.85
2022-12-11T06:41:01.895Z,21.23
2022-12-11T06:43:28.500Z,25.65
2022-12-11T06:45:59.189Z,24.48
2022-12-11T06:48:28.825Z,23.40
2022-12-11T06:50:55.479Z,25.17
2022-12-11T06:53:22.141Z,22.80
2022-12-11T06:55:48.755Z,22.70
2022-12-11T06:58:15.434Z,19.83
2022-12-11T07:00:42.251Z,26.17
2022-12-11T07:03:10.037Z,26.00
2022-12-11T07:05:36.695Z,24.33
2022-12-11T07:08:03.423Z,22.30
2022-12-11T07:10:30.136Z,22.48
2022-12-11T07:12:56.744Z,19.85
2022-12-11T07:15:23.455Z,19.70
2022-12-11T07:17:50.069Z,20.10
2022-12-11T07:20:17.322Z,20.27
2022-12-11T07:22:46.705Z,19.60
2022-12-11T07:25:14.695Z,21.95
2022-12-11T07:27:41.915Z,20.40
2022-12-11T07:30:09.538Z,27.92
2022-12-11T07:32:36.406Z,124.85
2022-12-11T07:35:03.741Z,53.95
2022-12-11T07:37:30.342Z,40.53
2022-12-11T07:39:57.022Z,33.67
2022-12-11T07:42:23.742Z,24.10
2022-12-11T07:44:50.451Z,28.30
2022-12-11T07:47:17.066Z,29.05
2022-12-11T07:49:43.661Z,28.55
2022-12-11T07:52:10.458Z,38.78
2022-12-11T07:54:37.192Z,39.53
2022-12-11T07:57:03.852Z,37.47
2022-12-11T07:59:31.002Z,45.60
2022-12-11T08:01:57.784Z,35.63
2022-12-11T08:04:24.503Z,39.05
2022-12-11T08:06:51.129Z,38.20
2022-12-11T08:09:21.239Z,32.13
2022-12-11T08:11:50.484Z,33.92
2022-12-11T08:14:18.004Z,36.75
2022-12-11T08:16:44.821Z,47.15
2022-12-11T08:19:12.383Z,46.47
2022-12-11T08:21:40.083Z,45.63
2022-12-11T08:24:07.931Z,47.65
2022-12-11T08:26:34.817Z,43.35
2022-12-11T08:29:02.581Z,43.60
2022-12-11T08:31:29.754Z,39.67
2022-12-11T08:33:56.849Z,41.67
2022-12-11T08:36:23.990Z,39.60
2022-12-11T08:38:51.785Z,39.65
2022-12-11T08:41:20.826Z,40.28
2022-12-11T08:43:48.174Z,40.90
2022-12-11T08:46:15.346Z,55.22
2022-12-11T08:48:43.211Z,59.63
2022-12-11T08:51:15.756Z,49.35
2022-12-11T08:53:43.012Z,40.90
2022-12-11T08:56:18.011Z,41.30
2022-12-11T08:58:45.792Z,43.05
2022-12-11T09:01:15.723Z,53.13
2022-12-11T09:03:42.638Z,51.63
2022-12-11T09:06:12.327Z,48.85
2022-12-11T09:08:38.966Z,60.28
2022-12-11T09:11:08.207Z,69.60
2022-12-11T09:13:35.330Z,51.43
2022-12-11T09:16:05.550Z,54.30
2022-12-11T09:18:32.539Z,55.67
2022-12-11T09:21:01.243Z,57.42
2022-12-11T09:23:27.957Z,43.97
2022-12-11T09:25:54.641Z,45.27
2022-12-11T09:28:21.996Z,45.92
2022-12-11T09:30:48.753Z,41.15
2022-12-11T09:33:15.517Z,39.72
2022-12-11T09:35:42.499Z,35.17
2022-12-11T09:38:09.739Z,36.90
2022-12-11T09:40:43.298Z,30.02
2022-12-11T09:43:26.965Z,28.58
2022-12-11T09:45:55.197Z,30.80
2022-12-11T09:48:26.104Z,28.70
2022-12-11T09:50:54.999Z,28.63
2022-12-11T09:53:34.459Z,28.50
2022-12-11T09:56:15.817Z,28.55
2022-12-11T09:59:14.604Z,39.90
2022-12-11T10:01:59.135Z,29.35
2022-12-11T10:05:04.848Z,27.90
2022-12-11T10:07:45.407Z,28.85
2022-12-11T10:10:40.179Z,30.95
2022-12-11T10:13:34.812Z,40.85
2022-12-11T10:16:17.807Z,37.25
2022-12-11T10:18:44.712Z,35.83
2022-12-11T10:21:14.255Z,34.55
2022-12-11T10:23:48.788Z,34.50
2022-12-11T10:26:21.264Z,33.60
2022-12-11T10:28:47.990Z,31.90
2022-12-11T10:31:38.148Z,32.73
2022-12-11T10:34:26.103Z,31.95
2022-12-11T10:37:00.194Z,29.70
2022-12-11T10:39:27.915Z,30.02
2022-12-11T10:41:56.074Z,27.20
2022-12-11T10:44:28.150Z,24.40
2022-12-11T10:47:15.294Z,23.27
2022-12-11T10:49:59.900Z,23.63
2022-12-11T10:52:35.075Z,23.20
2022-12-11T10:55:06.992Z,24.50
2022-12-11T10:57:39.189Z,21.63
2022-12-11T11:00:08.887Z,21.23
2022-12-11T11:02:38.619Z,22.80
2022-12-11T11:05:34.606Z,20.73
2022-12-11T11:08:13.798Z,21.50
2022-12-11T11:11:21.887Z,23.93
2022-12-11T11:13:48.733Z,20.08
2022-12-11T11:16:20.863Z,20.42
2022-12-11T11:18:55.772Z,19.67
2022-12-11T11:21:26.278Z,20.95
2022-12-11T11:23:54.251Z,19.43
2022-12-11T11:26:38.319Z,21.20
2022-12-11T11:29:27.516Z,21.45
2022-12-11T11:31:54.308Z,23.30
2022-12-11T11:34:22.295Z,27.83
2022-12-11T11:36:57.802Z,23.00
2022-12-11T11:39:41.382Z,24.02
2022-12-11T11:42:27.801Z,23.65
2022-12-11T11:45:10.789Z,22.92
2022-12-11T11:47:45.251Z,30.45
2022-12-11T11:50:19.034Z,23.70
2022-12-11T11:52:51.863Z,25.73
2022-12-11T11:55:28.379Z,22.88
2022-12-11T11:58:13.745Z,25.65
2022-12-11T12:00:40.535Z,24.10
2022-12-11T12:03:15.080Z,25.83
2022-12-11T12:06:04.998Z,24.63
2022-12-11T12:08:48.833Z,23.98
2022-12-11T12:11:30.798Z,22.08
2022-12-11T12:14:03.426Z,18.85
2022-12-11T12:16:53.201Z,23.00
2022-12-11T12:19:35.507Z,24.77
2022-12-11T12:22:31.373Z,23.70
2022-12-11T12:25:00.999Z,25.50
2022-12-11T12:30:23.025Z,23.47
2022-12-11T12:33:05.328Z,17.75
2022-12-11T12:35:36.419Z,18.38
2022-12-11T12:38:09.454Z,21.05
2022-12-11T12:41:14.248Z,16.20
2022-12-11T12:43:56.112Z,18.43
2022-12-11T12:46:50.799Z,18.17
2022-12-11T12:49:29.479Z,18.50
2022-12-11T12:51:57.819Z,25.90
2022-12-11T12:54:28.504Z,19.45
2022-12-11T12:56:56.628Z,16.43
2022-12-11T12:59:28.690Z,20.90
2022-12-11T13:02:06.400Z,18.75
2022-12-11T13:07:32.669Z,18.30
2022-12-11T13:10:25.205Z,14.27
2022-12-11T13:12:52.401Z,14.20
2022-12-11T13:15:32.994Z,12.63
2022-12-11T13:18:01.678Z,14.50
2022-12-11T13:20:32.099Z,32.83
2022-12-11T13:23:18.406Z,15.73
2022-12-11T13:25:57.268Z,18.98
2022-12-11T13:28:28.278Z,21.00
2022-12-11T13:31:02.203Z,16.48
2022-12-11T13:33:30.656Z,13.00
2022-12-11T13:36:15.775Z,9.20
2022-12-11T13:38:51.495Z,10.20
2022-12-11T13:41:20.390Z,8.95
2022-12-11T13:43:49.781Z,14.52
2022-12-11T13:46:25.017Z,18.45
2022-12-11T13:49:00.790Z,18.53
2022-12-11T13:51:31.519Z,19.73
2022-12-11T13:54:17.406Z,16.80
2022-12-11T13:57:03.365Z,11.70
2022-12-11T13:59:37.372Z,13.65
2022-12-11T14:02:21.070Z,17.33
2022-12-11T14:04:50.607Z,19.08
2022-12-11T14:07:23.927Z,16.15
2022-12-11T14:09:51.415Z,18.58
2022-12-11T14:12:21.497Z,23.98
2022-12-11T14:14:54.906Z,7.80
2022-12-11T14:17:28.259Z,8.32
2022-12-11T14:19:58.112Z,10.90
2022-12-11T14:22:29.921Z,16.77
2022-12-11T14:24:59.080Z,17.13
2022-12-11T14:27:27.726Z,16.23
2022-12-11T14:29:55.071Z,14.30
2022-12-11T14:32:43.283Z,10.48
2022-12-11T14:35:24.221Z,10.05
2022-12-11T14:37:52.347Z,13.48
2022-12-11T14:40:23.899Z,10.32
2022-12-11T14:43:00.134Z,12.50
2022-12-11T14:45:38.598Z,12.98
2022-12-11T14:48:20.889Z,14.02
2022-12-11T14:51:01.163Z,15.75
2022-12-11T14:53:40.257Z,20.67
2022-12-11T14:56:09.794Z,22.15
2022-12-11T14:58:46.847Z,19.17
2022-12-11T15:01:25.585Z,18.20
2022-12-11T15:04:14.641Z,14.90
2022-12-11T15:06:49.124Z,16.23
2022-12-11T15:09:34.015Z,15.48
2022-12-11T15:12:11.323Z,19.08
2022-12-11T15:14:50.341Z,16.42
2022-12-11T15:17:18.794Z,13.68
2022-12-11T15:19:51.692Z,13.85
2022-12-11T15:22:23.800Z,11.68
2022-12-11T15:24:53.258Z,12.27
2022-12-11T15:27:25.201Z,12.38
2022-12-11T15:29:52.027Z,13.35
2022-12-11T15:32:21.786Z,17.00
2022-12-11T15:34:51.470Z,12.40
2022-12-11T15:37:22.851Z,15.25
2022-12-11T15:39:50.233Z,14.73
2022-12-11T15:42:41.739Z,18.00
2022-12-11T15:45:16.601Z,23.80
2022-12-11T15:47:43.969Z,19.45
2022-12-11T15:50:22.962Z,23.63
2022-12-11T15:52:51.489Z,16.05
2022-12-11T15:55:19.598Z,14.10
2022-12-11T15:57:51.344Z,11.70
2022-12-11T16:00:19.386Z,16.83
2022-12-11T16:02:46.653Z,15.98
2022-12-11T16:05:14.491Z,21.20
2022-12-11T16:07:41.770Z,29.25
2022-12-11T16:10:14.506Z,28.42
2022-12-11T16:12:42.005Z,19.08
2022-12-11T16:15:09.788Z,23.02
2022-12-11T16:17:36.865Z,26.77
2022-12-11T16:20:04.056Z,24.55
2022-12-11T16:22:31.142Z,20.75
2022-12-11T16:24:57.767Z,16.88
2022-12-11T16:27:24.458Z,13.70
2022-12-11T16:29:51.352Z,13.35
2022-12-11T16:32:18.639Z,14.93
2022-12-11T16:34:45.294Z,29.55
2022-12-11T16:37:12.951Z,57.60
2022-12-11T16:39:39.852Z,32.58
2022-12-11T16:42:07.152Z,20.65
2022-12-11T16:44:33.987Z,17.13
2022-12-11T16:47:00.725Z,12.98
2022-12-11T16:49:27.373Z,12.25
2022-12-11T16:51:54.044Z,13.55
2022-12-11T16:54:20.726Z,14.88
2022-12-11T16:56:47.442Z,14.88
2022-12-11T16:59:14.094Z,36.50
2022-12-11T17:01:41.144Z,32.55
2022-12-11T17:04:07.925Z,22.85
2022-12-11T17:06:34.702Z,22.77
2022-12-11T17:09:01.515Z,29.45
2022-12-11T17:11:28.323Z,26.90
2022-12-11T17:13:56.665Z,22.50
2022-12-11T17:16:26.139Z,21.20
2022-12-11T17:18:53.189Z,20.40
2022-12-11T17:21:22.310Z,25.20
2022-12-11T17:23:49.919Z,34.97
2022-12-11T17:26:17.186Z,33.13
2022-12-11T17:28:44.407Z,18.33
2022-12-11T17:31:17.341Z,19.45
2022-12-11T17:33:45.178Z,19.48
2022-12-11T17:36:14.483Z,15.40
2022-12-11T17:38:41.521Z,15.02
2022-12-11T17:41:13.119Z,22.98
2022-12-11T17:43:43.568Z,13.80
2022-12-11T17:46:11.641Z,46.25
2022-12-11T17:48:38.699Z,100.00
2022-12-11T17:51:07.808Z,56.63
2022-12-11T17:53:36.299Z,47.58
2022-12-11T17:56:06.455Z,38.35
2022-12-11T17:58:34.083Z,22.17
2022-12-11T18:01:05.776Z,24.33
2022-12-11T18:03:32.504Z,29.77
2022-12-11T18:06:04.833Z,20.13
2022-12-11T18:08:31.991Z,36.47
2022-12-11T18:11:09.591Z,30.75
2022-12-11T18:13:36.409Z,28.08
2022-12-11T18:16:06.038Z,25.30
2022-12-11T18:18:33.251Z,28.35
2022-12-11T18:21:00.367Z,31.65
2022-12-11T18:23:27.505Z,30.55
2022-12-11T18:25:54.692Z,30.63
2022-12-11T18:28:21.506Z,42.08
2022-12-11T18:30:48.316Z,35.78
2022-12-11T18:33:15.109Z,29.98
2022-12-11T18:35:42.148Z,31.50
2022-12-11T18:38:10.470Z,31.30
2022-12-11T18:40:38.435Z,30.42
2022-12-11T18:43:05.105Z,54.80
2022-12-11T18:45:32.196Z,55.90
2022-12-11T18:47:59.100Z,42.88
2022-12-11T18:50:25.918Z,42.75
2022-12-11T18:52:54.623Z,40.58
2022-12-11T18:55:21.714Z,35.78
2022-12-11T18:57:48.651Z,37.13
2022-12-11T19:00:16.429Z,29.25
2022-12-11T19:02:43.166Z,27.65
2022-12-11T19:05:10.792Z,25.98
2022-12-11T19:07:37.893Z,26.00
2022-12-11T19:10:05.523Z,27.83
2022-12-11T19:12:32.167Z,26.25
2022-12-11T19:14:58.931Z,23.55
2022-12-11T19:17:25.649Z,23.20
2022-12-11T19:19:52.368Z,27.65
2022-12-11T19:22:19.064Z,29.27
2022-12-11T19:24:45.776Z,27.25
2022-12-11T19:27:13.840Z,29.67
2022-12-11T19:29:41.315Z,38.00
2022-12-11T19:32:08.184Z,50.90
2022-12-11T19:34:34.860Z,44.63
2022-12-11T19:37:01.508Z,49.22
2022-12-11T19:39:28.179Z,44.67
2022-12-11T19:41:54.866Z,45.88
2022-12-11T19:44:21.582Z,38.22
2022-12-11T19:46:48.363Z,38.65
2022-12-11T19:49:15.470Z,38.08
2022-12-11T19:51:42.270Z,27.70
2022-12-11T19:54:13.039Z,21.70
2022-12-11T19:56:39.786Z,21.67
2022-12-11T19:59:08.939Z,25.55
2022-12-11T20:01:37.592Z,19.20
2022-12-11T20:04:15.016Z,28.70
2022-12-11T20:06:43.569Z,26.77
2022-12-11T20:09:12.014Z,25.05
2022-12-11T20:11:40.962Z,31.13
2022-12-11T20:14:07.862Z,32.08
2022-12-11T20:17:02.147Z,31.55
2022-12-11T20:19:21.256Z,28.65
2022-12-11T20:21:48.107Z,25.67
2022-12-11T20:24:14.803Z,30.73
2022-12-11T20:26:41.521Z,25.17
2022-12-11T20:29:08.468Z,28.27
2022-12-11T20:31:36.791Z,27.95
2022-12-11T20:34:04.549Z,27.45
2022-12-11T20:36:31.696Z,35.28
2022-12-11T20:38:58.937Z,32.58
2022-12-11T20:41:26.684Z,41.63
2022-12-11T20:43:54.216Z,30.98
2022-12-11T20:46:25.101Z,29.00
2022-12-11T20:48:53.136Z,29.85
2022-12-11T20:51:25.685Z,42.38
2022-12-11T20:54:01.253Z,37.95
2022-12-11T20:56:30.903Z,54.08
2022-12-11T20:58:59.134Z,74.45
2022-12-11T21:01:28.428Z,65.70
2022-12-11T21:03:55.138Z,38.30
2022-12-11T21:06:25.851Z,34.65
2022-12-11T21:08:53.570Z,29.35
2022-12-11T21:11:20.978Z,36.05
2022-12-11T21:13:47.733Z,36.28
2022-12-11T21:16:14.570Z,32.47
2022-12-11T21:18:41.621Z,27.60
2022-12-11T21:21:08.368Z,26.38
2022-12-11T21:23:35.422Z,26.25
2022-12-11T21:26:03.225Z,36.72
2022-12-11T21:28:35.246Z,39.15
2022-12-11T21:31:05.454Z,41.38
2022-12-11T21:33:32.155Z,36.65
2022-12-11T21:36:00.320Z,44.58
2022-12-11T21:38:27.896Z,27.15
2022-12-11T21:40:55.595Z,32.97
2022-12-11T21:43:22.342Z,39.38
2022-12-11T21:46:04.904Z,29.85
2022-12-11T21:48:31.947Z,31.02
2022-12-11T21:51:06.760Z,29.02
2022-12-11T21:53:33.569Z,27.70
2022-12-11T21:56:00.265Z,35.75
2022-12-11T21:58:26.912Z,30.20
2022-12-11T22:00:53.606Z,31.63
2022-12-11T22:03:20.449Z,32.00
2022-12-11T22:05:47.074Z,33.35
2022-12-11T22:08:13.795Z,31.40
2022-12-11T22:10:40.420Z,33.05
2022-12-11T22:13:07.077Z,40.15
2022-12-11T22:15:33.769Z,32.38
2022-12-11T22:18:00.394Z,38.40
2022-12-11T22:20:27.061Z,31.77
2022-12-11T22:22:53.705Z,40.13
2022-12-11T22:25:20.361Z,40.75
2022-12-11T22:27:47.026Z,34.58
2022-12-11T22:30:14.057Z,36.20
2022-12-11T22:32:40.715Z,32.90
2022-12-11T22:35:07.665Z,34.10
2022-12-11T22:37:34.290Z,29.27
2022-12-11T22:40:01.195Z,31.73
2022-12-11T22:42:27.881Z,29.67
2022-12-11T22:44:54.508Z,26.65
2022-12-11T22:47:21.159Z,29.25
2022-12-11T22:49:47.927Z,27.75
2022-12-11T22:52:14.561Z,29.23
2022-12-11T22:54:42.492Z,22.23
2022-12-11T22:57:09.381Z,25.67
2022-12-11T22:59:36.474Z,28.35
2022-12-11T23:02:03.382Z,28.60
2022-12-11T23:04:30.695Z,29.48
2022-12-11T23:06:57.684Z,26.75
2022-12-11T23:09:24.534Z,24.80
2022-12-11T23:11:51.707Z,24.75
2022-12-11T23:14:19.030Z,28.60
2022-12-11T23:16:45.723Z,31.25
2022-12-11T23:19:13.013Z,29.73
2022-12-11T23:21:40.366Z,34.13
2022-12-11T23:24:07.611Z,33.72
2022-12-11T23:26:34.422Z,30.85
2022-12-11T23:29:02.013Z,29.13
2022-12-11T23:31:30.092Z,28.13
2022-12-11T23:33:57.191Z,25.67
2022-12-11T23:36:25.293Z,28.83
2022-12-11T23:38:55.024Z,28.25
2022-12-11T23:41:22.151Z,26.63
2022-12-11T23:43:48.818Z,22.15
2022-12-11T23:46:21.545Z,28.17
2022-12-11T23:48:48.871Z,27.55
2022-12-11T23:51:17.851Z,26.92
2022-12-11T23:53:45.077Z,23.90
2022-12-11T23:56:16.141Z,25.25
2022-12-11T23:58:42.820Z,18.88
